Time;durP1;ratioP1;P1;durP2;ratioP2;P2;SDS_P1;SDS_P2;PMS_P1;PMS_P2;Temp;Humidity;BMP_temperature;BMP_pressure;BME280_temperature;BME280_humidity;BME280_pressure;Samples;Min_cycle;Max_cycle;Signal;HPM_P1;HPM_P2
2024/01/03 00:02:21;;;;;;;1999.90;999.90;;;9.80;99.90;;;;;;5029917;28;20026;-72
2024/01/03 00:04:47;;;;;;;1999.90;999.90;;;9.70;99.90;;;;;;5033758;28;20420;-71
2024/01/03 00:07:13;;;;;;;1999.90;999.90;;;9.70;99.90;;;;;;5027277;28;20418;-71
2024/01/03 00:09:39;;;;;;;;;;;9.70;99.90;;;;;;5043169;28;20052;-71
2024/01/03 00:12:07;;;;;;;1999.90;999.90;;;9.70;99.90;;;;;;5035474;28;19960;-71
2024/01/03 00:14:35;;;;;;;1999.90;999.90;;;9.70;99.90;;;;;;5038356;28;20018;-71
2024/01/03 00:17:04;;;;;;;1999.90;999.90;;;9.80;99.90;;;;;;5035837;28;20305;-72
2024/01/03 00:19:33;;;;;;;1999.90;999.90;;;9.80;99.90;;;;;;5026967;28;20045;-71
2024/01/03 00:22:00;;;;;;;1999.90;999.90;;;9.70;99.90;;;;;;5033784;28;20033;-71
2024/01/03 00:24:26;;;;;;;1999.90;999.90;;;9.80;99.90;;;;;;5041484;28;20504;-71
2024/01/03 00:26:52;;;;;;;1999.90;999.90;;;9.70;99.90;;;;;;5033922;28;20068;-71
2024/01/03 00:29:24;;;;;;;1999.90;999.90;;;9.70;99.90;;;;;;5044924;28;20412;-72
2024/01/03 00:31:51;;;;;;;1999.90;999.90;;;9.70;99.90;;;;;;5030028;28;20029;-71
2024/01/03 00:34:26;;;;;;;1999.90;999.90;;;9.60;99.90;;;;;;5032838;28;20297;-71
2024/01/03 00:36:54;;;;;;;1999.90;999.90;;;9.60;99.90;;;;;;5029456;28;20071;-71
2024/01/03 00:39:25;;;;;;;1999.90;999.90;;;9.60;99.90;;;;;;5026536;28;20030;-72
2024/01/03 00:41:51;;;;;;;1999.90;999.90;;;9.60;99.90;;;;;;5026096;28;20053;-72
2024/01/03 00:44:17;;;;;;;1999.90;999.90;;;9.60;99.90;;;;;;5025991;28;20036;-71
2024/01/03 00:46:43;;;;;;;1999.90;999.90;;;9.60;99.90;;;;;;5031998;28;20092;-71
2024/01/03 00:49:10;;;;;;;1999.90;999.90;;;9.60;99.90;;;;;;5025573;28;20071;-71
2024/01/03 00:51:35;;;;;;;1999.90;999.90;;;9.60;99.90;;;;;;5031452;28;20349;-71
2024/01/03 00:54:02;;;;;;;1999.90;999.90;;;9.70;99.90;;;;;;5031506;28;20033;-71
2024/01/03 00:56:28;;;;;;;1999.90;999.90;;;9.80;99.90;;;;;;5031765;28;20060;-71
2024/01/03 00:58:53;;;;;;;1999.90;999.90;;;9.80;99.90;;;;;;5020097;28;20390;-70
2024/01/03 01:01:20;;;;;;;1999.90;999.90;;;9.80;99.90;;;;;;5033525;28;20033;-71
2024/01/03 01:03:46;;;;;;;1999.90;999.90;;;9.80;99.90;;;;;;5034299;28;20128;-70
2024/01/03 01:06:12;;;;;;;1999.90;999.90;;;9.80;99.90;;;;;;5035245;28;20026;-71
2024/01/03 01:08:38;;;;;;;1999.90;999.90;;;9.90;99.90;;;;;;5034651;28;20022;-71
2024/01/03 01:11:04;;;;;;;1999.90;999.90;;;9.90;99.90;;;;;;5034878;28;20061;-71
2024/01/03 01:13:29;;;;;;;1999.90;999.90;;;9.90;99.90;;;;;;5029347;28;20087;-71
2024/01/03 01:15:55;;;;;;;1999.90;999.90;;;9.80;99.90;;;;;;5033075;28;20038;-71
2024/01/03 01:18:21;;;;;;;1999.90;999.90;;;9.80;99.90;;;;;;5030399;28;20036;-72
2024/01/03 01:20:46;;;;;;;1999.90;999.90;;;9.80;99.90;;;;;;5034504;28;20037;-71
2024/01/03 01:23:12;;;;;;;1999.90;999.90;;;9.70;99.90;;;;;;5034738;28;20038;-71
2024/01/03 01:25:38;;;;;;;1999.90;999.90;;;9.70;99.90;;;;;;5045632;28;20021;-71
2024/01/03 01:28:04;;;;;;;1999.90;999.90;;;9.70;99.90;;;;;;5035865;28;20116;-71
2024/01/03 01:30:29;;;;;;;1999.90;999.90;;;9.70;99.90;;;;;;5029961;28;20026;-71
2024/01/03 01:32:55;;;;;;;1999.90;999.90;;;9.80;99.90;;;;;;5025587;28;20025;-71
2024/01/03 01:35:21;;;;;;;1999.90;999.90;;;9.80;99.90;;;;;;5031022;28;20038;-71
2024/01/03 01:37:46;;;;;;;1999.90;999.90;;;9.80;99.90;;;;;;5048328;28;20041;-71
2024/01/03 01:40:12;;;;;;;1999.90;999.90;;;9.90;99.90;;;;;;5038200;28;20053;-71
2024/01/03 01:42:43;;;;;;;1999.90;999.90;;;9.90;99.90;;;;;;5031647;28;20451;-72
2024/01/03 01:45:09;;;;;;;1999.90;999.90;;;10.00;99.90;;;;;;5027452;28;20030;-72
2024/01/03 01:47:36;;;;;;;1999.90;999.90;;;10.00;99.90;;;;;;5032371;28;20022;-71
2024/01/03 01:50:02;;;;;;;1999.90;999.90;;;10.00;99.90;;;;;;5034759;28;20100;-72
2024/01/03 01:52:28;;;;;;;1999.90;999.90;;;10.00;99.90;;;;;;5035775;28;20021;-70
2024/01/03 01:54:54;;;;;;;1999.90;999.90;;;10.10;99.90;;;;;;5034236;28;20701;-71
2024/01/03 01:57:20;;;;;;;1999.90;999.90;;;10.20;99.90;;;;;;5023311;28;20115;-71
2024/01/03 01:59:47;;;;;;;1999.90;999.90;;;10.20;99.90;;;;;;5035862;28;20053;-72
2024/01/03 02:02:13;;;;;;;1999.90;999.90;;;10.20;99.90;;;;;;5034840;28;20497;-71
2024/01/03 02:04:39;;;;;;;1999.90;999.90;;;10.20;99.90;;;;;;5031808;28;20102;-71
2024/01/03 02:07:07;;;;;;;1999.90;999.90;;;10.20;99.90;;;;;;5039583;28;20037;-71
2024/01/03 02:09:32;;;;;;;1999.90;999.90;;;10.30;99.90;;;;;;5029633;28;20026;-72
2024/01/03 02:11:58;;;;;;;1999.90;999.90;;;10.30;99.90;;;;;;5040638;28;20044;-71
2024/01/03 02:14:24;;;;;;;1999.90;999.90;;;10.30;99.90;;;;;;5014998;28;20030;-71
2024/01/03 02:16:50;;;;;;;1999.90;999.90;;;10.30;99.90;;;;;;5039399;28;20040;-72
2024/01/03 02:19:15;;;;;;;1999.90;999.90;;;10.30;99.90;;;;;;5030424;28;20034;-71
2024/01/03 02:21:41;;;;;;;1999.90;999.90;;;10.30;99.90;;;;;;5039242;28;20029;-71
2024/01/03 02:24:07;;;;;;;1999.90;999.90;;;10.40;99.90;;;;;;5042992;28;20477;-71
2024/01/03 02:26:33;;;;;;;1999.90;999.90;;;10.40;99.90;;;;;;5029121;28;20030;-71
2024/01/03 02:28:58;;;;;;;1999.90;999.90;;;10.40;99.90;;;;;;5034713;28;20417;-71
2024/01/03 02:31:24;;;;;;;1999.90;999.90;;;10.40;99.90;;;;;;5035815;28;20025;-71
2024/01/03 02:33:50;;;;;;;1999.90;999.90;;;10.40;99.90;;;;;;5033403;28;20071;-71
2024/01/03 02:36:15;;;;;;;1999.90;999.90;;;10.40;99.90;;;;;;5034415;28;20045;-71
2024/01/03 02:38:50;;;;;;;1999.90;999.90;;;10.50;99.90;;;;;;5034492;28;20033;-71
2024/01/03 02:41:15;;;;;;;1999.90;999.90;;;10.50;99.90;;;;;;5034154;28;20025;-72
2024/01/03 02:43:41;;;;;;;1999.90;999.90;;;10.50;99.90;;;;;;5043408;28;20059;-71
2024/01/03 02:46:06;;;;;;;1999.90;999.90;;;10.50;99.90;;;;;;5035254;28;20072;-70
2024/01/03 02:48:32;;;;;;;1999.90;999.90;;;10.50;99.90;;;;;;5034328;28;20025;-71
2024/01/03 02:50:58;;;;;;;1999.90;999.90;;;10.40;99.90;;;;;;5033343;28;20055;-71
2024/01/03 02:53:23;;;;;;;1999.90;999.90;;;10.30;99.90;;;;;;5033232;28;20066;-71
2024/01/03 02:55:49;;;;;;;1999.90;999.90;;;10.30;99.90;;;;;;5033377;28;20086;-71
2024/01/03 02:58:15;;;;;;;1999.90;999.90;;;10.30;99.90;;;;;;5033879;28;20033;-71
2024/01/03 03:00:41;;;;;;;1999.90;999.90;;;10.30;99.90;;;;;;5033612;28;20432;-73
2024/01/03 03:03:07;;;;;;;1999.90;999.90;;;10.30;99.90;;;;;;5026754;28;20075;-71
2024/01/03 03:05:32;;;;;;;1999.90;999.90;;;10.30;99.90;;;;;;5024816;28;20021;-72
2024/01/03 03:07:58;;;;;;;1999.90;999.90;;;10.30;99.90;;;;;;5029005;28;20037;-71
2024/01/03 03:10:24;;;;;;;1999.90;999.90;;;10.40;99.90;;;;;;5025022;28;20040;-70
2024/01/03 03:12:49;;;;;;;1999.90;999.90;;;10.30;99.90;;;;;;5027203;28;20022;-71
2024/01/03 03:15:15;;;;;;;1999.90;999.90;;;10.30;99.90;;;;;;5026719;28;20029;-71
2024/01/03 03:17:41;;;;;;;1999.90;999.90;;;10.30;99.90;;;;;;5033157;28;20531;-71
2024/01/03 03:20:07;;;;;;;1999.90;999.90;;;10.30;99.90;;;;;;5032278;28;20026;-71
2024/01/03 03:22:33;;;;;;;1999.90;999.90;;;10.40;99.90;;;;;;5031229;28;20080;-71
2024/01/03 03:24:59;;;;;;;1999.90;999.90;;;10.40;99.90;;;;;;5033216;28;20717;-72
2024/01/03 03:27:24;;;;;;;1999.90;999.90;;;10.40;99.90;;;;;;5030107;28;20021;-72
2024/01/03 03:29:50;;;;;;;1999.90;999.90;;;10.40;99.90;;;;;;5032913;28;20026;-71
2024/01/03 03:32:16;;;;;;;1999.90;999.90;;;10.40;99.90;;;;;;5033232;28;20029;-71
2024/01/03 03:34:42;;;;;;;1999.90;999.90;;;10.30;99.90;;;;;;5032647;28;20040;-71
2024/01/03 03:37:09;;;;;;;1999.90;999.90;;;10.40;99.90;;;;;;5031462;28;20034;-71
2024/01/03 03:39:34;;;;;;;1999.90;999.90;;;10.40;99.90;;;;;;5030564;28;20041;-71
2024/01/03 03:42:01;;;;;;;1999.90;999.90;;;10.40;99.90;;;;;;5029334;28;20144;-72
2024/01/03 03:44:27;;;;;;;1999.90;999.90;;;10.40;99.90;;;;;;5018775;28;20030;-71
2024/01/03 03:46:52;;;;;;;1999.90;999.90;;;10.40;99.90;;;;;;5031307;28;20030;-71
2024/01/03 03:49:18;;;;;;;1999.90;999.90;;;10.40;99.90;;;;;;5028870;28;20120;-71
2024/01/03 03:51:44;;;;;;;1999.90;999.90;;;10.40;99.90;;;;;;5029982;28;20109;-71
2024/01/03 03:54:09;;;;;;;1999.90;999.90;;;10.40;99.90;;;;;;5025340;28;20038;-71
2024/01/03 03:56:35;;;;;;;1999.90;999.90;;;10.40;99.90;;;;;;5030412;28;20026;-71
2024/01/03 03:59:01;;;;;;;1999.90;999.90;;;10.50;99.90;;;;;;5032195;28;20036;-71
2024/01/03 04:01:26;;;;;;;1999.90;999.90;;;10.50;99.90;;;;;;5020330;28;20306;-71
2024/01/03 04:03:52;;;;;;;1999.90;999.90;;;10.50;99.90;;;;;;5031071;28;20029;-71
2024/01/03 04:06:18;;;;;;;1999.90;999.90;;;10.40;99.90;;;;;;5022093;28;20026;-71
2024/01/03 04:08:45;;;;;;;1999.90;999.90;;;10.50;99.90;;;;;;5031059;28;20024;-71
2024/01/03 04:11:11;;;;;;;1999.90;999.90;;;10.40;99.90;;;;;;5032483;28;20325;-71
2024/01/03 04:13:41;;;;;;;1999.90;999.90;;;10.40;99.90;;;;;;5030655;28;20404;-71
2024/01/03 04:16:07;;;;;;;1999.90;999.90;;;10.40;99.90;;;;;;5031410;28;20048;-70
2024/01/03 04:18:34;;;;;;;;;;;10.40;99.90;;;;;;5032639;28;20052;-71
2024/01/03 04:21:01;;;;;;;1999.90;999.90;;;10.40;99.90;;;;;;5032645;28;19919;-71
2024/01/03 04:23:27;;;;;;;1999.90;999.90;;;10.40;99.90;;;;;;5024380;28;20037;-70
2024/01/03 04:25:53;;;;;;;1999.90;999.90;;;10.40;99.90;;;;;;5030340;28;20030;-70
2024/01/03 04:28:18;;;;;;;1999.90;999.90;;;10.40;99.90;;;;;;5031673;28;20071;-70
2024/01/03 04:30:44;;;;;;;1999.90;999.90;;;10.40;99.90;;;;;;5031338;28;20064;-71
2024/01/03 04:33:10;;;;;;;1999.90;999.90;;;10.40;99.90;;;;;;5032261;28;20028;-71
2024/01/03 04:35:35;;;;;;;1999.90;999.90;;;10.40;99.90;;;;;;5031493;28;20029;-71
2024/01/03 04:38:02;;;;;;;1999.90;999.90;;;10.40;99.90;;;;;;5031710;28;20037;-71
2024/01/03 04:40:30;;;;;;;1999.90;999.90;;;10.40;99.90;;;;;;5023457;28;20064;-71
2024/01/03 04:42:55;;;;;;;1999.90;999.90;;;10.40;99.90;;;;;;5018488;28;20108;-71
2024/01/03 04:45:21;;;;;;;1999.90;999.90;;;10.40;99.90;;;;;;5032238;28;20036;-70
2024/01/03 04:47:47;;;;;;;1999.90;999.90;;;10.40;99.90;;;;;;5031507;28;20059;-71
2024/01/03 04:50:12;;;;;;;1999.90;999.90;;;10.40;99.90;;;;;;5031921;28;20099;-71
2024/01/03 04:52:38;;;;;;;1999.90;999.90;;;10.40;99.90;;;;;;5031733;28;20029;-71
2024/01/03 04:55:05;;;;;;;1999.90;999.90;;;10.50;99.90;;;;;;5026472;28;20037;-71
2024/01/03 04:57:33;;;;;;;1999.90;999.90;;;10.50;99.90;;;;;;5028362;28;20029;-71
2024/01/03 04:59:59;;;;;;;1999.90;999.90;;;10.40;99.90;;;;;;5027509;28;20033;-70
2024/01/03 05:02:24;;;;;;;1999.90;999.90;;;10.40;99.90;;;;;;5020901;28;20409;-72
2024/01/03 05:04:50;;;;;;;1999.90;999.90;;;10.40;99.90;;;;;;5032396;28;20504;-70
2024/01/03 05:07:16;;;;;;;1999.90;999.90;;;10.40;99.90;;;;;;5024486;28;20037;-71
2024/01/03 05:09:41;;;;;;;1999.90;999.90;;;10.40;99.90;;;;;;5033624;28;20026;-71
2024/01/03 05:12:07;;;;;;;1999.90;999.90;;;10.40;99.90;;;;;;5025367;28;20036;-71
2024/01/03 05:14:33;;;;;;;1999.90;999.90;;;10.40;99.90;;;;;;5025655;28;20040;-70
2024/01/03 05:16:59;;;;;;;1999.90;999.90;;;10.40;99.90;;;;;;5025224;28;20132;-71
2024/01/03 05:19:24;;;;;;;1999.90;999.90;;;10.40;99.90;;;;;;5029000;28;20034;-70
2024/01/03 05:21:50;;;;;;;1999.90;999.90;;;10.50;99.90;;;;;;5026097;28;20056;-71
2024/01/03 05:24:16;;;;;;;1999.90;999.90;;;10.40;99.90;;;;;;5041066;28;20055;-70
2024/01/03 05:26:41;;;;;;;1999.90;999.90;;;10.40;99.90;;;;;;5025555;28;20029;-71
2024/01/03 05:29:07;;;;;;;1999.90;999.90;;;10.40;99.90;;;;;;5032014;28;20026;-72
2024/01/03 05:31:33;;;;;;;1999.90;999.90;;;10.40;99.90;;;;;;5034446;28;20499;-71
2024/01/03 05:33:59;;;;;;;1999.90;999.90;;;10.40;99.90;;;;;;5027550;28;20052;-70
2024/01/03 05:36:24;;;;;;;1999.90;999.90;;;10.40;99.90;;;;;;5030010;28;20439;-70
2024/01/03 05:38:50;;;;;;;1999.90;999.90;;;10.40;99.90;;;;;;5035530;28;20029;-71
2024/01/03 05:41:15;;;;;;;1999.90;999.90;;;10.40;99.90;;;;;;5033215;28;20037;-71
2024/01/03 05:43:41;;;;;;;1999.90;999.90;;;10.40;99.90;;;;;;5031575;28;20036;-70
2024/01/03 05:46:07;;;;;;;1999.90;999.90;;;10.40;99.90;;;;;;5032457;28;20440;-71
2024/01/03 05:48:33;;;;;;;1999.90;999.90;;;10.40;99.90;;;;;;5029586;28;20093;-71
2024/01/03 05:50:58;;;;;;;1999.90;999.90;;;10.40;99.90;;;;;;5033138;28;20029;-70
2024/01/03 05:53:24;;;;;;;1999.90;999.90;;;10.40;99.90;;;;;;5023194;28;20377;-70
2024/01/03 05:55:50;;;;;;;1999.90;999.90;;;10.40;99.90;;;;;;5024910;28;20033;-71
2024/01/03 05:58:15;;;;;;;1999.90;999.90;;;10.40;99.90;;;;;;5032180;28;20367;-72
2024/01/03 06:00:41;;;;;;;1999.90;999.90;;;10.40;99.90;;;;;;5036007;28;20103;-70
2024/01/03 06:03:07;;;;;;;1999.90;999.90;;;10.40;99.90;;;;;;5037552;28;20576;-71
2024/01/03 06:05:32;;;;;;;1999.90;999.90;;;10.40;99.90;;;;;;5039320;28;20025;-70
2024/01/03 06:07:58;;;;;;;1999.90;999.90;;;10.40;99.90;;;;;;5029274;28;20152;-70
2024/01/03 06:10:24;;;;;;;1999.90;999.90;;;10.40;99.90;;;;;;5030902;28;20293;-70
2024/01/03 06:12:49;;;;;;;1999.90;999.90;;;10.40;99.90;;;;;;5034298;28;20408;-71
2024/01/03 06:15:15;;;;;;;1999.90;999.90;;;10.40;99.90;;;;;;5034046;28;20123;-72
2024/01/03 06:17:41;;;;;;;1999.90;999.90;;;10.40;99.90;;;;;;5033183;28;20037;-71
2024/01/03 06:20:07;;;;;;;1999.90;999.90;;;10.30;99.90;;;;;;5034967;28;20029;-70
2024/01/03 06:22:33;;;;;;;1999.90;999.90;;;10.30;99.90;;;;;;5032658;28;20461;-71
2024/01/03 06:24:59;;;;;;;1999.90;999.90;;;10.30;99.90;;;;;;5026787;28;20034;-71
2024/01/03 06:27:25;;;;;;;1999.90;999.90;;;10.20;99.90;;;;;;5023537;28;20030;-71
2024/01/03 06:29:50;;;;;;;1999.90;999.90;;;10.20;99.90;;;;;;5034533;28;20035;-71
2024/01/03 06:32:16;;;;;;;1999.90;999.90;;;10.20;99.90;;;;;;5034271;28;20045;-71
2024/01/03 06:34:42;;;;;;;1999.90;999.90;;;10.10;99.90;;;;;;5030208;28;20104;-71
2024/01/03 06:37:07;;;;;;;1999.90;999.90;;;10.10;99.90;;;;;;5034215;28;20034;-71
2024/01/03 06:39:33;;;;;;;1999.90;999.90;;;10.10;99.90;;;;;;5032488;28;20061;-71
2024/01/03 06:41:59;;;;;;;1999.90;999.90;;;10.10;99.90;;;;;;5033481;28;20129;-71
2024/01/03 06:44:26;;;;;;;1999.90;999.90;;;10.10;99.90;;;;;;5033745;28;20038;-70
2024/01/03 06:46:51;;;;;;;1999.90;999.90;;;10.20;99.90;;;;;;5034201;28;20118;-71
2024/01/03 06:49:17;;;;;;;1999.90;999.90;;;10.10;99.90;;;;;;5034078;28;20030;-71
2024/01/03 06:51:44;;;;;;;1999.90;999.90;;;10.00;99.90;;;;;;5020863;28;20060;-71
2024/01/03 06:54:10;;;;;;;1999.90;999.90;;;10.00;99.90;;;;;;5033716;28;20121;-70
2024/01/03 06:56:35;;;;;;;1999.90;999.90;;;9.90;99.90;;;;;;5030599;28;20100;-70
2024/01/03 06:59:01;;;;;;;1999.90;999.90;;;9.90;99.90;;;;;;5032820;28;20037;-71
2024/01/03 07:01:26;;;;;;;1999.90;999.90;;;9.90;99.90;;;;;;5033585;28;20316;-71
2024/01/03 07:03:52;;;;;;;1999.90;999.90;;;9.80;99.90;;;;;;5030250;28;20028;-71
2024/01/03 07:06:18;;;;;;;1999.90;999.90;;;9.80;99.90;;;;;;5034049;28;20029;-71
2024/01/03 07:08:45;;;;;;;1999.90;999.90;;;9.80;99.90;;;;;;5022817;28;20668;-71
2024/01/03 07:11:11;;;;;;;1999.90;999.90;;;9.70;99.90;;;;;;5033772;28;20029;-71
2024/01/03 07:13:37;;;;;;;1999.90;999.90;;;9.70;99.90;;;;;;5019178;28;20030;-70
2024/01/03 07:16:03;;;;;;;1999.90;999.90;;;9.70;99.90;;;;;;5032200;28;20075;-71
2024/01/03 07:18:29;;;;;;;1999.90;999.90;;;9.70;99.90;;;;;;5030174;28;20421;-70
2024/01/03 07:20:54;;;;;;;1999.90;999.90;;;9.70;99.90;;;;;;5030187;28;20030;-71
2024/01/03 07:23:20;;;;;;;1999.90;999.90;;;9.70;99.90;;;;;;5025064;28;20034;-70
2024/01/03 07:25:46;;;;;;;1999.90;999.90;;;9.70;99.90;;;;;;5026860;28;20033;-71
2024/01/03 07:28:12;;;;;;;1999.90;999.90;;;9.70;99.90;;;;;;5032593;28;20087;-71
2024/01/03 07:30:37;;;;;;;1999.90;999.90;;;9.70;99.90;;;;;;5034422;28;20338;-71
2024/01/03 07:33:04;;;;;;;1999.90;999.90;;;9.70;99.90;;;;;;5032440;28;20262;-73
2024/01/03 07:35:30;;;;;;;1999.90;999.90;;;9.70;99.90;;;;;;5039862;28;20021;-70
2024/01/03 07:37:55;;;;;;;1999.90;999.90;;;9.80;99.90;;;;;;5046088;28;20036;-70
2024/01/03 07:40:21;;;;;;;1999.90;999.90;;;9.70;99.90;;;;;;5027258;28;20149;-71
2024/01/03 07:42:47;;;;;;;1999.90;999.90;;;9.70;99.90;;;;;;5041362;28;20042;-70
2024/01/03 07:45:12;;;;;;;1999.90;999.90;;;9.80;99.90;;;;;;5046856;28;20025;-70
2024/01/03 07:47:38;;;;;;;1999.90;999.90;;;9.80;99.90;;;;;;5022426;28;20175;-70
2024/01/03 07:50:04;;;;;;;1999.90;999.90;;;9.80;99.90;;;;;;5036710;28;20021;-71
2024/01/03 07:52:30;;;;;;;1999.90;999.90;;;9.80;99.90;;;;;;5033264;28;20025;-70
2024/01/03 07:54:56;;;;;;;1999.90;999.90;;;9.80;99.90;;;;;;5042053;28;20518;-70
2024/01/03 07:57:21;;;;;;;1999.90;999.90;;;9.80;99.90;;;;;;5033190;28;20164;-71
2024/01/03 07:59:47;;;;;;;1999.90;999.90;;;9.90;99.90;;;;;;5033787;28;20362;-72
2024/01/03 08:02:13;;;;;;;1999.90;999.90;;;9.80;99.90;;;;;;5019742;28;20037;-70
2024/01/03 08:04:40;;;;;;;1999.90;999.90;;;9.90;99.90;;;;;;5028799;28;20367;-71
2024/01/03 08:07:06;;;;;;;1999.90;999.90;;;9.90;99.90;;;;;;5029492;28;20025;-70
2024/01/03 08:09:34;;;;;;;1999.90;999.90;;;9.80;99.90;;;;;;5030567;28;20112;-71
2024/01/03 08:12:00;;;;;;;1999.90;999.90;;;9.80;99.90;;;;;;5034631;28;20355;-71
2024/01/03 08:14:25;;;;;;;1999.90;999.90;;;9.80;99.90;;;;;;5038501;28;20039;-71
2024/01/03 08:16:51;;;;;;;1999.90;999.90;;;9.70;99.90;;;;;;5047749;28;20049;-70
2024/01/03 08:19:17;;;;;;;1999.90;999.90;;;9.70;99.90;;;;;;5016522;28;20035;-70
2024/01/03 08:21:42;;;;;;;1999.90;999.90;;;9.60;99.90;;;;;;5033705;28;20021;-70
2024/01/03 08:24:08;;;;;;;1999.90;999.90;;;9.60;99.90;;;;;;5031123;28;20112;-72
2024/01/03 08:26:34;;;;;;;1999.90;999.90;;;9.70;99.90;;;;;;5030158;28;20022;-71
2024/01/03 08:28:59;;;;;;;1999.90;999.90;;;9.70;99.90;;;;;;5028704;28;20060;-70
2024/01/03 08:31:25;;;;;;;1999.90;999.90;;;9.70;99.90;;;;;;5031336;28;20074;-72
2024/01/03 08:33:51;;;;;;;1999.90;999.90;;;9.70;99.90;;;;;;5030183;28;20111;-72
2024/01/03 08:36:16;;;;;;;1999.90;999.90;;;9.80;99.90;;;;;;5040736;28;20033;-70
2024/01/03 08:38:42;;;;;;;1999.90;999.90;;;9.70;99.90;;;;;;5047818;28;20375;-71
2024/01/03 08:41:16;;;;;;;1999.90;999.90;;;9.80;99.90;;;;;;5028125;28;20047;-70
2024/01/03 08:43:42;;;;;;;1999.90;999.90;;;9.80;99.90;;;;;;5034723;28;20044;-70
2024/01/03 08:46:08;;;;;;;1999.90;999.90;;;9.80;99.90;;;;;;5038515;28;20025;-71
2024/01/03 08:48:34;;;;;;;1999.90;999.90;;;9.80;99.90;;;;;;5032413;28;20267;-71
2024/01/03 08:51:00;;;;;;;1999.90;999.90;;;9.80;99.90;;;;;;5025608;28;20259;-71
2024/01/03 08:53:25;;;;;;;1999.90;999.90;;;9.80;99.90;;;;;;5036867;28;20018;-70
2024/01/03 08:55:51;;;;;;;1999.90;999.90;;;9.80;99.90;;;;;;5032020;28;20225;-71
2024/01/03 08:58:17;;;;;;;1999.90;999.90;;;9.80;99.90;;;;;;5032065;28;20037;-71
2024/01/03 09:00:44;;;;;;;1999.90;999.90;;;9.80;99.90;;;;;;5031309;28;20048;-71
2024/01/03 09:03:10;;;;;;;1999.90;999.90;;;9.90;99.90;;;;;;5036048;28;20029;-71
2024/01/03 09:05:36;;;;;;;1999.90;999.90;;;9.90;99.90;;;;;;5032599;28;20416;-71
2024/01/03 09:08:01;;;;;;;1999.90;999.90;;;9.90;99.90;;;;;;5027060;28;20044;-73
2024/01/03 09:10:27;;;;;;;1999.90;999.90;;;9.90;99.90;;;;;;5037942;28;20112;-71
2024/01/03 09:12:53;;;;;;;1999.90;999.90;;;10.00;99.90;;;;;;5015758;28;20022;-71
2024/01/03 09:15:18;;;;;;;1999.90;999.90;;;10.00;99.90;;;;;;5019897;28;20368;-71
2024/01/03 09:17:44;;;;;;;1999.90;999.90;;;10.00;99.90;;;;;;5038422;28;20382;-70
2024/01/03 09:20:11;;;;;;;1999.90;999.90;;;10.00;99.90;;;;;;5030513;28;20026;-71
2024/01/03 09:22:37;;;;;;;1999.90;999.90;;;10.00;99.90;;;;;;5030066;28;20061;-70
2024/01/03 09:25:03;;;;;;;1999.90;999.90;;;10.10;99.90;;;;;;5028097;28;20057;-71
2024/01/03 09:27:29;;;;;;;1999.90;999.90;;;10.10;99.90;;;;;;5031791;28;20065;-70
2024/01/03 09:29:55;;;;;;;1999.90;999.90;;;10.10;99.90;;;;;;5030185;28;20081;-70
2024/01/03 09:32:21;;;;;;;1999.90;999.90;;;10.10;99.90;;;;;;5041015;28;20056;-71
2024/01/03 09:34:46;;;;;;;1999.90;999.90;;;10.10;99.90;;;;;;5036933;28;20021;-71
2024/01/03 09:37:14;;;;;;;1999.90;999.90;;;10.10;99.90;;;;;;5035667;28;20029;-71
2024/01/03 09:39:40;;;;;;;1999.90;999.90;;;10.00;99.90;;;;;;5033636;28;20034;-71
2024/01/03 09:42:07;;;;;;;1999.90;999.90;;;10.00;99.90;;;;;;5029190;28;20103;-70
2024/01/03 09:44:33;;;;;;;1999.90;999.90;;;10.00;99.90;;;;;;5035230;28;20132;-72
2024/01/03 09:46:59;;;;;;;1999.90;999.90;;;9.90;99.90;;;;;;5036892;28;20363;-71
2024/01/03 09:49:25;;;;;;;1999.90;999.90;;;9.80;99.90;;;;;;5028172;28;20033;-71
2024/01/03 09:51:52;;;;;;;1999.90;999.90;;;9.80;99.90;;;;;;5041117;28;20018;-71
2024/01/03 09:54:19;;;;;;;1999.90;999.90;;;9.80;99.90;;;;;;5036012;28;21142;-71
2024/01/03 09:56:47;;;;;;;1999.90;999.90;;;9.70;99.90;;;;;;5044920;28;20033;-71
2024/01/03 09:59:17;;;;;;;1999.90;999.90;;;9.80;99.90;;;;;;5028281;28;20112;-71
2024/01/03 10:01:54;;;;;;;1999.90;999.90;;;9.80;99.90;;;;;;5035092;28;20071;-70
2024/01/03 10:04:19;;;;;;;1999.90;999.90;;;9.80;99.90;;;;;;5024495;28;20038;-71
2024/01/03 10:06:55;;;;;;;1999.90;999.90;;;9.80;99.90;;;;;;5028976;28;20036;-70
2024/01/03 10:09:21;;;;;;;1999.90;999.90;;;9.80;99.90;;;;;;5031240;28;20025;-71
2024/01/03 10:11:51;;;;;;;;;;;9.80;99.90;;;;;;5037868;28;20049;-70
2024/01/03 10:14:22;;;;;;;1999.90;999.90;;;9.90;99.90;;;;;;5035998;28;19919;-71
2024/01/03 10:16:48;;;;;;;1999.90;999.90;;;9.80;99.90;;;;;;5042550;28;20025;-71
2024/01/03 10:19:19;;;;;;;1999.90;999.90;;;9.90;99.90;;;;;;5047336;28;20027;-71
2024/01/03 10:21:54;;;;;;;1999.90;999.90;;;9.90;99.90;;;;;;5039680;28;20448;-70
2024/01/03 10:24:23;;;;;;;1999.90;999.90;;;10.00;99.90;;;;;;5016674;28;20473;-71
2024/01/03 10:26:49;;;;;;;1999.90;999.90;;;10.20;99.90;;;;;;5029127;28;20021;-71
2024/01/03 10:29:17;;;;;;;1999.90;999.90;;;10.20;99.90;;;;;;5041669;28;20052;-70
2024/01/03 10:31:43;;;;;;;1999.90;999.90;;;10.30;99.90;;;;;;5024278;28;20107;-71
2024/01/03 10:34:15;;;;;;;1999.90;999.90;;;10.40;99.90;;;;;;5034961;28;20041;-71
2024/01/03 10:36:45;;;;;;;1999.90;999.90;;;10.50;99.90;;;;;;5032695;28;20030;-71
2024/01/03 10:39:14;;;;;;;1999.90;999.90;;;10.50;99.90;;;;;;5026073;28;20702;-70
2024/01/03 10:41:45;;;;;;;1999.90;999.90;;;10.40;99.90;;;;;;5025330;28;20095;-72
2024/01/03 10:44:15;;;;;;;1999.90;999.90;;;10.40;99.90;;;;;;5034710;28;20080;-70
2024/01/03 10:46:42;;;;;;;1999.90;999.90;;;10.40;99.90;;;;;;5024830;28;20875;-70
2024/01/03 10:49:07;;;;;;;;;;;10.40;99.90;;;;;;5023385;28;20026;-71
2024/01/03 10:51:41;;;;;;;1999.90;999.90;;;10.40;99.90;;;;;;5030985;28;20244;-71
2024/01/03 10:54:09;;;;;;;1999.90;999.90;;;10.40;99.90;;;;;;5030903;28;20040;-71
2024/01/03 10:56:36;;;;;;;1999.90;999.90;;;10.40;99.90;;;;;;5042429;28;20028;-70
2024/01/03 10:59:03;;;;;;;1999.90;999.90;;;10.50;99.90;;;;;;5038523;28;20045;-71
2024/01/03 11:01:34;;;;;;;1999.90;999.90;;;10.50;99.90;;;;;;5037752;28;20037;-71
2024/01/03 11:04:37;;;;;;;1999.90;999.90;;;10.50;99.90;;;;;;5027302;28;20155;-71
2024/01/03 11:07:25;;;;;;;1999.90;999.90;;;10.40;99.90;;;;;;5040621;28;20039;-71
2024/01/03 11:09:51;;;;;;;1999.90;999.90;;;10.40;99.90;;;;;;5026943;28;20025;-72
2024/01/03 11:12:16;;;;;;;1999.90;999.90;;;10.40;99.90;;;;;;5032656;28;20371;-71
2024/01/03 11:14:43;;;;;;;1999.90;999.90;;;10.40;99.90;;;;;;5030041;28;20033;-71
2024/01/03 11:17:12;;;;;;;1999.90;999.90;;;10.50;99.90;;;;;;5043578;28;20053;-70
2024/01/03 11:19:38;;;;;;;1999.90;999.90;;;10.50;99.90;;;;;;5027843;28;20038;-71
2024/01/03 11:22:04;;;;;;;1999.90;999.90;;;10.50;99.90;;;;;;5025019;28;20025;-70
2024/01/03 11:24:33;;;;;;;1999.90;999.90;;;10.60;99.90;;;;;;5029544;28;20321;-71
2024/01/03 11:27:04;;;;;;;1999.90;999.90;;;10.60;99.90;;;;;;5025074;28;20469;-70
2024/01/03 11:29:36;;;;;;;1999.90;999.90;;;10.50;99.90;;;;;;5030493;28;20028;-70
2024/01/03 11:32:04;;;;;;;1999.90;999.90;;;10.50;99.90;;;;;;5032059;28;20033;-70
2024/01/03 11:34:48;;;;;;;1999.90;999.90;;;10.50;99.90;;;;;;5030215;28;20116;-71
2024/01/03 11:37:16;;;;;;;1999.90;999.90;;;10.40;99.90;;;;;;5037530;28;20113;-71
2024/01/03 11:39:45;;;;;;;1999.90;999.90;;;10.40;99.90;;;;;;5033442;28;20029;-70
2024/01/03 11:42:18;;;;;;;1999.90;999.90;;;10.50;99.90;;;;;;5025468;28;20057;-71
2024/01/03 11:44:44;;;;;;;1999.90;999.90;;;10.60;99.90;;;;;;5026725;28;20595;-71
2024/01/03 11:47:13;;;;;;;1999.90;999.90;;;10.60;99.90;;;;;;5032777;28;20025;-71
2024/01/03 11:49:41;;;;;;;1999.90;999.90;;;10.60;99.90;;;;;;5028993;28;20586;-70
2024/01/03 11:52:07;;;;;;;1999.90;999.90;;;10.60;99.90;;;;;;5034860;28;20100;-70
2024/01/03 11:54:33;;;;;;;1999.90;999.90;;;10.50;99.90;;;;;;5036816;28;20109;-70
2024/01/03 11:57:07;;;;;;;1999.90;999.90;;;10.50;99.90;;;;;;5032273;28;20091;-71
2024/01/03 11:59:33;;;;;;;1999.90;999.90;;;10.50;99.90;;;;;;5020387;28;20037;-71
2024/01/03 12:01:59;;;;;;;1999.90;999.90;;;10.60;99.90;;;;;;5032836;28;20091;-71